Allegro — V2CQ5 — position and weather

sailwx.info

Track history (hours):
 
Tides and Currents Weather Stations Pressure Air Temp Water Temp Dewpoint Dewpoint Depression Visibility Wind Speed Wind Dir Waves Ship Positions

Allegro

Last reported at 2017-Nov-19 23:16 UTC. Time now 2017-Nov-24 11:22 UTC.
Position N 36°10' W 005°26'.

Length 134 m; draft 8.7 m.

Type: Ship (hazmat cat B). MMSI: 304642000.

Date/timePositionNaut miles runAvg speedWind from/ knotsBaromVisibWave heightAir tempDewpointWater temp
2017-Nov-19 23:16N 36°10' W 005°26'0 0.1
2017-Nov-19 22:55N 36°10' W 005°26'1 2.0
2017-Nov-19 22:30N 36°09' W 005°25'4 7.1
2017-Nov-19 22:01N 36°06' W 005°23'4 7.9
2017-Nov-19 21:30N 36°04' W 005°19'0 0.6
2017-Nov-19 21:01N 36°04' W 005°18'2 3.0
2017-Nov-19 20:30N 36°04' W 005°17'0 0.3
2017-Nov-19 20:00N 36°04' W 005°17'0 0.5
2017-Nov-19 19:30N 36°05' W 005°17'0 0.8
2017-Nov-19 19:00N 36°05' W 005°17'2 3.3
2017-Nov-19 18:30N 36°04' W 005°18'2 4.5
2017-Nov-19 18:00N 36°03' W 005°21'3 5.4
2017-Nov-19 17:31N 36°01' W 005°23'8 0.4
2017-Nov-18 20:49N 35°57' W 005°32'310.8
2017-Nov-18 20:30N 35°59' W 005°29'612.9
2017-Nov-18 20:00N 36°00' W 005°21'21913.1
2017-Nov-18 03:15N 37°13' W 001°04'313.8
2017-Nov-18 03:00N 37°16' W 001°01'813.8
2017-Nov-18 02:27N 37°21' W 000°53'613.8
2017-Nov-18 02:01N 37°25' W 000°48'713.8
2017-Nov-18 01:30N 37°29' W 000°41'713.8
2017-Nov-18 01:00N 37°34' W 000°34'713.5
2017-Nov-18 00:30N 37°39' W 000°29'713.5
2017-Nov-18 00:00N 37°45' W 000°25'813.4
2017-Nov-17 23:24N 37°52' W 000°20'613.4
2017-Nov-17 22:57N 37°57' W 000°15'  
Track history (hours):
 
Tides and Currents Weather Stations Pressure Air Temp Water Temp Dewpoint Dewpoint Depression Visibility Wind Speed Wind Dir Waves Ship Positions

Allegro

Last reported at 2017-Nov-19 23:16 UTC. Time now 2017-Nov-24 11:22 UTC.
Position N 36°10' W 005°26'.

Length 134 m; draft 8.7 m.

Type: Ship (hazmat cat B). MMSI: 304642000.

Date/timePositionNaut miles runAvg speedWind from/ knotsBaromVisibWave heightAir tempDewpointWater temp
2017-Nov-19 23:16N 36°10' W 005°26'0 0.1
2017-Nov-19 22:55N 36°10' W 005°26'1 2.0
2017-Nov-19 22:30N 36°09' W 005°25'4 7.1
2017-Nov-19 22:01N 36°06' W 005°23'4 7.9
2017-Nov-19 21:30N 36°04' W 005°19'0 0.6
2017-Nov-19 21:01N 36°04' W 005°18'2 3.0
2017-Nov-19 20:30N 36°04' W 005°17'0 0.3
2017-Nov-19 20:00N 36°04' W 005°17'0 0.5
2017-Nov-19 19:30N 36°05' W 005°17'0 0.8
2017-Nov-19 19:00N 36°05' W 005°17'2 3.3
2017-Nov-19 18:30N 36°04' W 005°18'2 4.5
2017-Nov-19 18:00N 36°03' W 005°21'3 5.4
2017-Nov-19 17:31N 36°01' W 005°23'8 0.4
2017-Nov-18 20:49N 35°57' W 005°32'310.8
2017-Nov-18 20:30N 35°59' W 005°29'612.9
2017-Nov-18 20:00N 36°00' W 005°21'21913.1
2017-Nov-18 03:15N 37°13' W 001°04'313.8
2017-Nov-18 03:00N 37°16' W 001°01'813.8
2017-Nov-18 02:27N 37°21' W 000°53'613.8
2017-Nov-18 02:01N 37°25' W 000°48'713.8
2017-Nov-18 01:30N 37°29' W 000°41'713.8
2017-Nov-18 01:00N 37°34' W 000°34'713.5
2017-Nov-18 00:30N 37°39' W 000°29'713.5
2017-Nov-18 00:00N 37°45' W 000°25'813.4
2017-Nov-17 23:24N 37°52' W 000°20'613.4
2017-Nov-17 22:57N 37°57' W 000°15'  

Dump ship's entire track history